Cathma — PJTL — position and weather

sailwx.info

Track history (hours):
 
Tides and Currents Weather Stations Pressure Air Temp Water Temp Dewpoint Dewpoint Depression Visibility Wind Speed Wind Dir Waves Ship Positions

Cathma

Last reported at 2015-May-21 05:13 UTC. Time now 2015-May-28 00:05 UTC.
Position N 57°15' E 017°38'.

Length 111 m; draft 6.3 m.

Type: Ship. MMSI: 306832000.

Date/timePositionNaut miles runAvg speedWind from/ knotsBaromVisibWave heightAir tempDewpointWater temp
2015-May-21 05:13N 57°15' E 017°38'1211.6
2015-May-21 04:08N 57°03' E 017°30'711.5
2015-May-21 03:33N 56°57' E 017°26'9110.8
2015-May-20 19:07N 55°44' E 015°47'711.2
2015-May-20 18:32N 55°41' E 015°37'1211.4
2015-May-20 17:29N 55°35' E 015°18'1011.3
2015-May-20 16:33N 55°30' E 015°02'1211.4
2015-May-20 15:33N 55°25' E 014°45'1111.1
2015-May-20 14:33N 55°17' E 014°31'1111.2
2015-May-20 13:33N 55°08' E 014°19'1111.1
2015-May-20 12:33N 55°00' E 014°05'4811.3
2015-May-20 08:19N 54°43' E 012°48'2011.2
2015-May-20 06:33N 54°32' E 012°19'11 9.8
2015-May-20 05:29N 54°25' E 012°05'1010.3
2015-May-20 04:32N 54°25' E 011°49'10 9.7
2015-May-20 03:33N 54°29' E 011°34'1010.1
2015-May-20 02:33N 54°33' E 011°18'9 9.5
2015-May-20 01:33N 54°35' E 011°02'1010.5
2015-May-20 00:33N 54°34' E 010°44'1010.3
2015-May-19 23:33N 54°32' E 010°27'10 9.8
2015-May-19 22:33N 54°26' E 010°14'5 4.8
2015-May-19 21:33N 54°22' E 010°09'0 0.5
2015-May-19 20:33N 54°22' E 010°08'0 0.0
2015-May-19 19:31N 54°22' E 010°08'3 3.4
2015-May-19 18:33N 54°22' E 010°02'8 7.7
2015-May-19 17:33N 54°22' E 009°49'8 8.0
2015-May-19 16:33N 54°17' E 009°38'8 7.9
2015-May-19 15:29N 54°11' E 009°28'6 5.5
2015-May-19 14:26N 54°08' E 009°20'7 8.3
2015-May-19 13:33N 54°00' E 009°18'6 6.3
2015-May-19 12:33N 53°55' E 009°12'2 2.4
2015-May-19 11:32N 53°54' E 009°09'2 1.6
2015-May-19 10:33N 53°53' E 009°06'9 8.9
2015-May-19 09:33N 53°50' E 008°52'1312.6
2015-May-19 08:33N 53°58' E 008°35'1313.4
2015-May-19 07:33N 53°60' E 008°12'4 3.6
2015-May-19 06:32N 54°03' E 008°09'0 0.0
2015-May-19 05:19N 54°03' E 008°09'0 0.0
2015-May-19 04:31N 54°03' E 008°09'0 0.0
2015-May-19 03:33N 54°03' E 008°09'0 0.0
2015-May-19 02:24N 54°03' E 008°09'0 0.1
2015-May-19 01:32N 54°03' E 008°09'0 0.0
2015-May-19 00:29N 54°03' E 008°09'0 0.0
2015-May-18 23:29N 54°03' E 008°09'0 0.0
2015-May-18 22:31N 54°03' E 008°09'1 0.6
2015-May-18 21:33N 54°03' E 008°08'9 9.0
2015-May-18 20:33N 53°58' E 007°56'1413.6
2015-May-18 19:33N 53°54' E 007°34'1313.2
2015-May-18 18:33N 53°51' E 007°12'3310.7
2015-May-18 15:30N 53°37' E 006°22'1111.2
2015-May-18 14:31N 53°34' E 006°39'8 7.9
2015-May-18 13:34N 53°29' E 006°49'1110.8
2015-May-18 12:33N 53°20' E 006°60'2 1.8
2015-May-18 11:31N 53°19' E 006°57'0 0.0
2015-May-18 10:31N 53°19' E 006°57'0 0.0
2015-May-18 09:31N 53°19' E 006°57'0 0.0
2015-May-18 08:33N 53°19' E 006°57'0 0.0
2015-May-18 07:33N 53°19' E 006°57'0 0.0
2015-May-18 06:32N 53°19' E 006°57'0 0.0
2015-May-18 05:32N 53°19' E 006°57'0 0.0
2015-May-18 04:31N 53°19' E 006°57'0 0.0
2015-May-18 03:31N 53°19' E 006°57'0 0.0
2015-May-18 02:31N 53°19' E 006°57'0 0.0
2015-May-18 01:33N 53°19' E 006°57'0 0.0
2015-May-18 00:33N 53°19' E 006°57'0 0.0
2015-May-17 23:32N 53°19' E 006°57'0 0.0
2015-May-17 22:32N 53°19' E 006°57'0 0.0
2015-May-17 21:31N 53°19' E 006°57'0 0.0
2015-May-17 20:31N 53°19' E 006°57'0 0.0
2015-May-17 19:34N 53°19' E 006°57'1 0.7
2015-May-17 18:33N 53°20' E 006°56'0 0.0
2015-May-17 17:33N 53°20' E 006°56'0 0.0
2015-May-17 16:32N 53°20' E 006°56'0 0.0
2015-May-17 15:29N 53°20' E 006°56'0 0.0
2015-May-17 14:31N 53°20' E 006°56'0 0.0
2015-May-17 13:31N 53°20' E 006°56'0 0.0
2015-May-17 12:33N 53°20' E 006°56'0 0.0
2015-May-17 11:30N 53°20' E 006°56'0 0.0
2015-May-17 10:33N 53°20' E 006°56'0 0.0
2015-May-17 09:32N 53°20' E 006°56'0 0.0
2015-May-17 08:29N 53°20' E 006°56'0 0.0
2015-May-17 07:31N 53°20' E 006°56'0 0.0
2015-May-17 06:31N 53°20' E 006°56'0 0.0
2015-May-17 05:33N 53°20' E 006°56'0 0.0
2015-May-17 04:30N 53°20' E 006°56'0 0.0
2015-May-17 03:33N 53°20' E 006°56'0 0.0
2015-May-17 02:31N 53°20' E 006°56'0 0.0
2015-May-17 01:32N 53°20' E 006°56'0 0.0
2015-May-17 00:31N 53°20' E 006°56'0 0.0
2015-May-16 23:31N 53°20' E 006°56'0 0.0
2015-May-16 22:33N 53°20' E 006°56'0 0.0
2015-May-16 21:33N 53°20' E 006°56'0 0.0
2015-May-16 20:29N 53°20' E 006°56'0 0.0
2015-May-16 19:32N 53°20' E 006°56'0 0.0
2015-May-16 18:29N 53°20' E 006°56'0 0.0
2015-May-16 17:31N 53°20' E 006°56'0 0.0
2015-May-16 16:31N 53°20' E 006°56'0 0.0
2015-May-16 15:33N 53°20' E 006°56'0 0.0
2015-May-16 14:33N 53°20' E 006°56'0 0.0
2015-May-16 13:32N 53°20' E 006°56'0 0.0
2015-May-16 12:32N 53°20' E 006°56'0 0.0
2015-May-16 11:33N 53°20' E 006°56'1 1.3
2015-May-16 10:34N 53°19' E 006°58'7 7.2
2015-May-16 09:33N 53°26' E 006°55'5 4.8
2015-May-16 08:33N 53°22' E 006°59'3 2.7
2015-May-16 07:33N 53°20' E 006°56'0 0.2
2015-May-16 06:31N 53°20' E 006°56'0 0.0
2015-May-16 05:33N 53°20' E 006°56'0 0.0
2015-May-16 04:33N 53°20' E 006°56'0 0.0
2015-May-16 03:32N 53°20' E 006°56'0 0.0
2015-May-16 02:32N 53°20' E 006°56'0 0.0
2015-May-16 01:32N 53°20' E 006°56'0 0.0
2015-May-16 00:31N 53°20' E 006°56'0 0.0
2015-May-15 23:28N 53°20' E 006°56'0 0.0
2015-May-15 22:33N 53°20' E 006°56'0 0.0
2015-May-15 21:33N 53°20' E 006°56'0 0.0
2015-May-15 20:32N 53°20' E 006°56'0 0.0
2015-May-15 19:32N 53°20' E 006°56'0 0.0
2015-May-15 18:32N 53°20' E 006°56'0 0.0
2015-May-15 17:31N 53°20' E 006°56'0 0.0
2015-May-15 16:31N 53°20' E 006°56'0 0.0
2015-May-15 15:33N 53°20' E 006°56'0 0.1
2015-May-15 14:33N 53°20' E 006°56'0 0.0
2015-May-15 13:33N 53°20' E 006°56'0 0.0
2015-May-15 12:33N 53°20' E 006°56'0 0.0
2015-May-15 11:33N 53°20' E 006°56'0 0.0
2015-May-15 10:33N 53°20' E 006°56'0 0.0
2015-May-15 09:33N 53°20' E 006°56'0 0.0
2015-May-15 08:33N 53°20' E 006°56'0 0.0
2015-May-15 07:33N 53°20' E 006°56'0 0.0
2015-May-15 06:33N 53°20' E 006°56'0 0.0
2015-May-15 05:33N 53°20' E 006°56'0 0.0
2015-May-15 04:33N 53°20' E 006°56'0 0.0
2015-May-15 03:33N 53°20' E 006°56'0 0.0
2015-May-15 02:33N 53°20' E 006°56'0 0.0
2015-May-15 01:33N 53°20' E 006°56'0 0.0
2015-May-15 00:33N 53°20' E 006°56'0 0.0
2015-May-14 23:33N 53°20' E 006°56'0 0.0
2015-May-14 22:33N 53°20' E 006°56'0 0.0
2015-May-14 21:33N 53°20' E 006°56'0 0.0
2015-May-14 20:33N 53°20' E 006°56'0 0.0
2015-May-14 19:33N 53°20' E 006°56'0 0.0
2015-May-14 18:33N 53°20' E 006°56'0 0.0
2015-May-14 17:33N 53°20' E 006°56'0 0.0
2015-May-14 16:33N 53°20' E 006°56'0 0.0
2015-May-14 15:33N 53°20' E 006°56'0 0.0
2015-May-14 14:33N 53°20' E 006°56'0 0.0
2015-May-14 13:33N 53°20' E 006°56'0 0.0
2015-May-14 12:33N 53°20' E 006°56'0 0.0
2015-May-14 11:33N 53°20' E 006°56'0 0.0
2015-May-14 10:33N 53°20' E 006°56'0 0.0
2015-May-14 09:33N 53°20' E 006°56'0 0.0
2015-May-14 08:33N 53°20' E 006°56'0 0.0
2015-May-14 07:33N 53°20' E 006°56'0 0.0
2015-May-14 06:33N 53°20' E 006°56'0 0.0
2015-May-14 05:33N 53°20' E 006°56'0 0.0
2015-May-14 04:33N 53°20' E 006°56'0 0.0
2015-May-14 03:33N 53°20' E 006°56'0 0.0
2015-May-14 02:33N 53°20' E 006°56'0 0.0
2015-May-14 01:33N 53°20' E 006°56'0 0.0
2015-May-14 00:33N 53°20' E 006°56'0 0.0
2015-May-13 23:33N 53°20' E 006°56'0 0.0
2015-May-13 22:33N 53°20' E 006°56'0 0.0
2015-May-13 21:33N 53°20' E 006°56'0 0.0
2015-May-13 20:33N 53°20' E 006°56'0 0.0
2015-May-13 19:33N 53°20' E 006°56'0 0.0
2015-May-13 18:33N 53°20' E 006°56'0 0.0
2015-May-13 17:33N 53°20' E 006°56'0 0.0
2015-May-13 16:33N 53°20' E 006°56'0 0.0
2015-May-13 15:33N 53°20' E 006°56'0 0.0
2015-May-13 14:33N 53°20' E 006°56'0 0.0
2015-May-13 13:33N 53°20' E 006°56'0 0.0
2015-May-13 12:33N 53°20' E 006°56'0 0.0
2015-May-13 11:23N 53°20' E 006°56'0 0.0
2015-May-13 10:23N 53°20' E 006°56'0 0.0
2015-May-13 09:31N 53°20' E 006°56'0 0.0
2015-May-13 08:28N 53°20' E 006°56'0 0.0
2015-May-13 07:28N 53°20' E 006°56'0 0.1
2015-May-13 06:27N 53°20' E 006°56'0 0.1
2015-May-13 05:33N 53°20' E 006°56'0 0.0
2015-May-13 04:34N 53°20' E 006°56'0 0.0
2015-May-13 03:33N 53°20' E 006°56'0 0.0
2015-May-13 02:33N 53°20' E 006°56'0 0.0
2015-May-13 01:34N 53°20' E 006°56'0 0.0
2015-May-13 00:34N 53°20' E 006°56'0 0.0
2015-May-12 23:34N 53°20' E 006°56'0 0.0
2015-May-12 22:34N 53°20' E 006°56'0 0.0
2015-May-12 21:34N 53°20' E 006°56'0 0.0
2015-May-12 20:34N 53°20' E 006°56'0 0.0
2015-May-12 19:33N 53°20' E 006°56'0 0.0
2015-May-12 18:34N 53°20' E 006°56'0 0.0
2015-May-12 17:34N 53°20' E 006°56'0 0.0
2015-May-12 16:34N 53°20' E 006°56'0 0.0
2015-May-12 15:34N 53°20' E 006°56'0 0.0
2015-May-12 14:34N 53°20' E 006°56'0 0.0
2015-May-12 13:34N 53°20' E 006°56'0 0.0
2015-May-12 12:34N 53°20' E 006°56'0 0.0
2015-May-12 11:34N 53°20' E 006°56'0 0.0
2015-May-12 10:34N 53°20' E 006°56'0 0.0
2015-May-12 09:34N 53°20' E 006°56'0 0.0
2015-May-12 08:34N 53°20' E 006°56'0 0.0
2015-May-12 07:34N 53°20' E 006°56'0 0.0
2015-May-12 06:33N 53°20' E 006°56'0 0.0
2015-May-12 05:34N 53°20' E 006°56'0 0.0
2015-May-12 04:34N 53°20' E 006°56'0 0.0
2015-May-12 03:34N 53°20' E 006°56'0 0.0
2015-May-12 02:33N 53°20' E 006°56'0 0.0
2015-May-12 01:33N 53°20' E 006°56'0 0.0
2015-May-12 00:33N 53°20' E 006°56'0 0.0
2015-May-11 23:34N 53°20' E 006°56'0 0.0
2015-May-11 22:34N 53°20' E 006°56'0 0.0
2015-May-11 21:34N 53°20' E 006°56'0 0.0
2015-May-11 20:34N 53°20' E 006°56'0 0.0
2015-May-11 19:33N 53°20' E 006°56'0 0.0
2015-May-11 18:34N 53°20' E 006°56'0 0.0
2015-May-11 17:33N 53°20' E 006°56'0 0.0
2015-May-11 16:33N 53°20' E 006°56'0 0.0
2015-May-11 15:34N 53°20' E 006°56'0 0.0
2015-May-11 14:34N 53°20' E 006°56'0 0.0
2015-May-11 13:34N 53°20' E 006°56'0 0.0
2015-May-11 12:33N 53°20' E 006°56'0 0.0
2015-May-11 11:33N 53°20' E 006°56'0 0.0
2015-May-11 10:34N 53°20' E 006°56'0 0.0
2015-May-11 09:33N 53°20' E 006°56'0 0.0
2015-May-11 08:33N 53°20' E 006°56'0 0.0
2015-May-11 07:30N 53°20' E 006°56'0 0.0
2015-May-11 06:26N 53°20' E 006°56'0 0.0
2015-May-11 05:32N 53°20' E 006°56'  
Track history (hours):
 
Tides and Currents Weather Stations Pressure Air Temp Water Temp Dewpoint Dewpoint Depression Visibility Wind Speed Wind Dir Waves Ship Positions

Cathma

Last reported at 2015-May-21 05:13 UTC. Time now 2015-May-28 00:05 UTC.
Position N 57°15' E 017°38'.

Length 111 m; draft 6.3 m.

Type: Ship. MMSI: 306832000.

Date/timePositionNaut miles runAvg speedWind from/ knotsBaromVisibWave heightAir tempDewpointWater temp
2015-May-21 05:13N 57°15' E 017°38'1211.6
2015-May-21 04:08N 57°03' E 017°30'711.5
2015-May-21 03:33N 56°57' E 017°26'9110.8
2015-May-20 19:07N 55°44' E 015°47'711.2
2015-May-20 18:32N 55°41' E 015°37'1211.4
2015-May-20 17:29N 55°35' E 015°18'1011.3
2015-May-20 16:33N 55°30' E 015°02'1211.4
2015-May-20 15:33N 55°25' E 014°45'1111.1
2015-May-20 14:33N 55°17' E 014°31'1111.2
2015-May-20 13:33N 55°08' E 014°19'1111.1
2015-May-20 12:33N 55°00' E 014°05'4811.3
2015-May-20 08:19N 54°43' E 012°48'2011.2
2015-May-20 06:33N 54°32' E 012°19'11 9.8
2015-May-20 05:29N 54°25' E 012°05'1010.3
2015-May-20 04:32N 54°25' E 011°49'10 9.7
2015-May-20 03:33N 54°29' E 011°34'1010.1
2015-May-20 02:33N 54°33' E 011°18'9 9.5
2015-May-20 01:33N 54°35' E 011°02'1010.5
2015-May-20 00:33N 54°34' E 010°44'1010.3
2015-May-19 23:33N 54°32' E 010°27'10 9.8
2015-May-19 22:33N 54°26' E 010°14'5 4.8
2015-May-19 21:33N 54°22' E 010°09'0 0.5
2015-May-19 20:33N 54°22' E 010°08'0 0.0
2015-May-19 19:31N 54°22' E 010°08'3 3.4
2015-May-19 18:33N 54°22' E 010°02'8 7.7
2015-May-19 17:33N 54°22' E 009°49'8 8.0
2015-May-19 16:33N 54°17' E 009°38'8 7.9
2015-May-19 15:29N 54°11' E 009°28'6 5.5
2015-May-19 14:26N 54°08' E 009°20'7 8.3
2015-May-19 13:33N 54°00' E 009°18'6 6.3
2015-May-19 12:33N 53°55' E 009°12'2 2.4
2015-May-19 11:32N 53°54' E 009°09'2 1.6
2015-May-19 10:33N 53°53' E 009°06'9 8.9
2015-May-19 09:33N 53°50' E 008°52'1312.6
2015-May-19 08:33N 53°58' E 008°35'1313.4
2015-May-19 07:33N 53°60' E 008°12'4 3.6
2015-May-19 06:32N 54°03' E 008°09'0 0.0
2015-May-19 05:19N 54°03' E 008°09'0 0.0
2015-May-19 04:31N 54°03' E 008°09'0 0.0
2015-May-19 03:33N 54°03' E 008°09'0 0.0
2015-May-19 02:24N 54°03' E 008°09'0 0.1
2015-May-19 01:32N 54°03' E 008°09'0 0.0
2015-May-19 00:29N 54°03' E 008°09'0 0.0
2015-May-18 23:29N 54°03' E 008°09'0 0.0
2015-May-18 22:31N 54°03' E 008°09'1 0.6
2015-May-18 21:33N 54°03' E 008°08'9 9.0
2015-May-18 20:33N 53°58' E 007°56'1413.6
2015-May-18 19:33N 53°54' E 007°34'1313.2
2015-May-18 18:33N 53°51' E 007°12'3310.7
2015-May-18 15:30N 53°37' E 006°22'1111.2
2015-May-18 14:31N 53°34' E 006°39'8 7.9
2015-May-18 13:34N 53°29' E 006°49'1110.8
2015-May-18 12:33N 53°20' E 006°60'2 1.8
2015-May-18 11:31N 53°19' E 006°57'0 0.0
2015-May-18 10:31N 53°19' E 006°57'0 0.0
2015-May-18 09:31N 53°19' E 006°57'0 0.0
2015-May-18 08:33N 53°19' E 006°57'0 0.0
2015-May-18 07:33N 53°19' E 006°57'0 0.0
2015-May-18 06:32N 53°19' E 006°57'0 0.0
2015-May-18 05:32N 53°19' E 006°57'0 0.0
2015-May-18 04:31N 53°19' E 006°57'0 0.0
2015-May-18 03:31N 53°19' E 006°57'0 0.0
2015-May-18 02:31N 53°19' E 006°57'0 0.0
2015-May-18 01:33N 53°19' E 006°57'0 0.0
2015-May-18 00:33N 53°19' E 006°57'0 0.0
2015-May-17 23:32N 53°19' E 006°57'0 0.0
2015-May-17 22:32N 53°19' E 006°57'0 0.0
2015-May-17 21:31N 53°19' E 006°57'0 0.0
2015-May-17 20:31N 53°19' E 006°57'0 0.0
2015-May-17 19:34N 53°19' E 006°57'1 0.7
2015-May-17 18:33N 53°20' E 006°56'0 0.0
2015-May-17 17:33N 53°20' E 006°56'0 0.0
2015-May-17 16:32N 53°20' E 006°56'0 0.0
2015-May-17 15:29N 53°20' E 006°56'0 0.0
2015-May-17 14:31N 53°20' E 006°56'0 0.0
2015-May-17 13:31N 53°20' E 006°56'0 0.0
2015-May-17 12:33N 53°20' E 006°56'0 0.0
2015-May-17 11:30N 53°20' E 006°56'0 0.0
2015-May-17 10:33N 53°20' E 006°56'0 0.0
2015-May-17 09:32N 53°20' E 006°56'0 0.0
2015-May-17 08:29N 53°20' E 006°56'0 0.0
2015-May-17 07:31N 53°20' E 006°56'0 0.0
2015-May-17 06:31N 53°20' E 006°56'0 0.0
2015-May-17 05:33N 53°20' E 006°56'0 0.0
2015-May-17 04:30N 53°20' E 006°56'0 0.0
2015-May-17 03:33N 53°20' E 006°56'0 0.0
2015-May-17 02:31N 53°20' E 006°56'0 0.0
2015-May-17 01:32N 53°20' E 006°56'0 0.0
2015-May-17 00:31N 53°20' E 006°56'0 0.0
2015-May-16 23:31N 53°20' E 006°56'0 0.0
2015-May-16 22:33N 53°20' E 006°56'0 0.0
2015-May-16 21:33N 53°20' E 006°56'0 0.0
2015-May-16 20:29N 53°20' E 006°56'0 0.0
2015-May-16 19:32N 53°20' E 006°56'0 0.0
2015-May-16 18:29N 53°20' E 006°56'0 0.0
2015-May-16 17:31N 53°20' E 006°56'0 0.0
2015-May-16 16:31N 53°20' E 006°56'0 0.0
2015-May-16 15:33N 53°20' E 006°56'0 0.0
2015-May-16 14:33N 53°20' E 006°56'0 0.0
2015-May-16 13:32N 53°20' E 006°56'0 0.0
2015-May-16 12:32N 53°20' E 006°56'0 0.0
2015-May-16 11:33N 53°20' E 006°56'1 1.3
2015-May-16 10:34N 53°19' E 006°58'7 7.2
2015-May-16 09:33N 53°26' E 006°55'5 4.8
2015-May-16 08:33N 53°22' E 006°59'3 2.7
2015-May-16 07:33N 53°20' E 006°56'0 0.2
2015-May-16 06:31N 53°20' E 006°56'0 0.0
2015-May-16 05:33N 53°20' E 006°56'0 0.0
2015-May-16 04:33N 53°20' E 006°56'0 0.0
2015-May-16 03:32N 53°20' E 006°56'0 0.0
2015-May-16 02:32N 53°20' E 006°56'0 0.0
2015-May-16 01:32N 53°20' E 006°56'0 0.0
2015-May-16 00:31N 53°20' E 006°56'0 0.0
2015-May-15 23:28N 53°20' E 006°56'0 0.0
2015-May-15 22:33N 53°20' E 006°56'0 0.0
2015-May-15 21:33N 53°20' E 006°56'0 0.0
2015-May-15 20:32N 53°20' E 006°56'0 0.0
2015-May-15 19:32N 53°20' E 006°56'0 0.0
2015-May-15 18:32N 53°20' E 006°56'0 0.0
2015-May-15 17:31N 53°20' E 006°56'0 0.0
2015-May-15 16:31N 53°20' E 006°56'0 0.0
2015-May-15 15:33N 53°20' E 006°56'0 0.1
2015-May-15 14:33N 53°20' E 006°56'0 0.0
2015-May-15 13:33N 53°20' E 006°56'0 0.0
2015-May-15 12:33N 53°20' E 006°56'0 0.0
2015-May-15 11:33N 53°20' E 006°56'0 0.0
2015-May-15 10:33N 53°20' E 006°56'0 0.0
2015-May-15 09:33N 53°20' E 006°56'0 0.0
2015-May-15 08:33N 53°20' E 006°56'0 0.0
2015-May-15 07:33N 53°20' E 006°56'0 0.0
2015-May-15 06:33N 53°20' E 006°56'0 0.0
2015-May-15 05:33N 53°20' E 006°56'0 0.0
2015-May-15 04:33N 53°20' E 006°56'0 0.0
2015-May-15 03:33N 53°20' E 006°56'0 0.0
2015-May-15 02:33N 53°20' E 006°56'0 0.0
2015-May-15 01:33N 53°20' E 006°56'0 0.0
2015-May-15 00:33N 53°20' E 006°56'0 0.0
2015-May-14 23:33N 53°20' E 006°56'0 0.0
2015-May-14 22:33N 53°20' E 006°56'0 0.0
2015-May-14 21:33N 53°20' E 006°56'0 0.0
2015-May-14 20:33N 53°20' E 006°56'0 0.0
2015-May-14 19:33N 53°20' E 006°56'0 0.0
2015-May-14 18:33N 53°20' E 006°56'0 0.0
2015-May-14 17:33N 53°20' E 006°56'0 0.0
2015-May-14 16:33N 53°20' E 006°56'0 0.0
2015-May-14 15:33N 53°20' E 006°56'0 0.0
2015-May-14 14:33N 53°20' E 006°56'0 0.0
2015-May-14 13:33N 53°20' E 006°56'0 0.0
2015-May-14 12:33N 53°20' E 006°56'0 0.0
2015-May-14 11:33N 53°20' E 006°56'0 0.0
2015-May-14 10:33N 53°20' E 006°56'0 0.0
2015-May-14 09:33N 53°20' E 006°56'0 0.0
2015-May-14 08:33N 53°20' E 006°56'0 0.0
2015-May-14 07:33N 53°20' E 006°56'0 0.0
2015-May-14 06:33N 53°20' E 006°56'0 0.0
2015-May-14 05:33N 53°20' E 006°56'0 0.0
2015-May-14 04:33N 53°20' E 006°56'0 0.0
2015-May-14 03:33N 53°20' E 006°56'0 0.0
2015-May-14 02:33N 53°20' E 006°56'0 0.0
2015-May-14 01:33N 53°20' E 006°56'0 0.0
2015-May-14 00:33N 53°20' E 006°56'0 0.0
2015-May-13 23:33N 53°20' E 006°56'0 0.0
2015-May-13 22:33N 53°20' E 006°56'0 0.0
2015-May-13 21:33N 53°20' E 006°56'0 0.0
2015-May-13 20:33N 53°20' E 006°56'0 0.0
2015-May-13 19:33N 53°20' E 006°56'0 0.0
2015-May-13 18:33N 53°20' E 006°56'0 0.0
2015-May-13 17:33N 53°20' E 006°56'0 0.0
2015-May-13 16:33N 53°20' E 006°56'0 0.0
2015-May-13 15:33N 53°20' E 006°56'0 0.0
2015-May-13 14:33N 53°20' E 006°56'0 0.0
2015-May-13 13:33N 53°20' E 006°56'0 0.0
2015-May-13 12:33N 53°20' E 006°56'0 0.0
2015-May-13 11:23N 53°20' E 006°56'0 0.0
2015-May-13 10:23N 53°20' E 006°56'0 0.0
2015-May-13 09:31N 53°20' E 006°56'0 0.0
2015-May-13 08:28N 53°20' E 006°56'0 0.0
2015-May-13 07:28N 53°20' E 006°56'0 0.1
2015-May-13 06:27N 53°20' E 006°56'0 0.1
2015-May-13 05:33N 53°20' E 006°56'0 0.0
2015-May-13 04:34N 53°20' E 006°56'0 0.0
2015-May-13 03:33N 53°20' E 006°56'0 0.0
2015-May-13 02:33N 53°20' E 006°56'0 0.0
2015-May-13 01:34N 53°20' E 006°56'0 0.0
2015-May-13 00:34N 53°20' E 006°56'0 0.0
2015-May-12 23:34N 53°20' E 006°56'0 0.0
2015-May-12 22:34N 53°20' E 006°56'0 0.0
2015-May-12 21:34N 53°20' E 006°56'0 0.0
2015-May-12 20:34N 53°20' E 006°56'0 0.0
2015-May-12 19:33N 53°20' E 006°56'0 0.0
2015-May-12 18:34N 53°20' E 006°56'0 0.0
2015-May-12 17:34N 53°20' E 006°56'0 0.0
2015-May-12 16:34N 53°20' E 006°56'0 0.0
2015-May-12 15:34N 53°20' E 006°56'0 0.0
2015-May-12 14:34N 53°20' E 006°56'0 0.0
2015-May-12 13:34N 53°20' E 006°56'0 0.0
2015-May-12 12:34N 53°20' E 006°56'0 0.0
2015-May-12 11:34N 53°20' E 006°56'0 0.0
2015-May-12 10:34N 53°20' E 006°56'0 0.0
2015-May-12 09:34N 53°20' E 006°56'0 0.0
2015-May-12 08:34N 53°20' E 006°56'0 0.0
2015-May-12 07:34N 53°20' E 006°56'0 0.0
2015-May-12 06:33N 53°20' E 006°56'0 0.0
2015-May-12 05:34N 53°20' E 006°56'0 0.0
2015-May-12 04:34N 53°20' E 006°56'0 0.0
2015-May-12 03:34N 53°20' E 006°56'0 0.0
2015-May-12 02:33N 53°20' E 006°56'0 0.0
2015-May-12 01:33N 53°20' E 006°56'0 0.0
2015-May-12 00:33N 53°20' E 006°56'0 0.0
2015-May-11 23:34N 53°20' E 006°56'0 0.0
2015-May-11 22:34N 53°20' E 006°56'0 0.0
2015-May-11 21:34N 53°20' E 006°56'0 0.0
2015-May-11 20:34N 53°20' E 006°56'0 0.0
2015-May-11 19:33N 53°20' E 006°56'0 0.0
2015-May-11 18:34N 53°20' E 006°56'0 0.0
2015-May-11 17:33N 53°20' E 006°56'0 0.0
2015-May-11 16:33N 53°20' E 006°56'0 0.0
2015-May-11 15:34N 53°20' E 006°56'0 0.0
2015-May-11 14:34N 53°20' E 006°56'0 0.0
2015-May-11 13:34N 53°20' E 006°56'0 0.0
2015-May-11 12:33N 53°20' E 006°56'0 0.0
2015-May-11 11:33N 53°20' E 006°56'0 0.0
2015-May-11 10:34N 53°20' E 006°56'0 0.0
2015-May-11 09:33N 53°20' E 006°56'0 0.0
2015-May-11 08:33N 53°20' E 006°56'0 0.0
2015-May-11 07:30N 53°20' E 006°56'0 0.0
2015-May-11 06:26N 53°20' E 006°56'0 0.0
2015-May-11 05:32N 53°20' E 006°56'  

Dump ship's entire track history